sensor_id;sensor_type;location;lat;lon;timestamp;P1;durP1;ratioP1;P2;durP2;ratioP2
13816;SDS011;6979;52.116;5.286;2024-01-06T00:01:46;7.17;;;6.57;;
13816;SDS011;6979;52.116;5.286;2024-01-06T00:04:14;6.07;;;5.47;;
13816;SDS011;6979;52.116;5.286;2024-01-06T00:06:40;5.33;;;4.83;;
13816;SDS011;6979;52.116;5.286;2024-01-06T00:09:07;5.60;;;5.10;;
13816;SDS011;6979;52.116;5.286;2024-01-06T00:11:34;5.60;;;5.10;;
13816;SDS011;6979;52.116;5.286;2024-01-06T00:14:01;5.43;;;4.93;;
13816;SDS011;6979;52.116;5.286;2024-01-06T00:16:28;5.10;;;4.70;;
13816;SDS011;6979;52.116;5.286;2024-01-06T00:18:56;4.30;;;3.90;;
13816;SDS011;6979;52.116;5.286;2024-01-06T00:21:24;5.20;;;4.67;;
13816;SDS011;6979;52.116;5.286;2024-01-06T00:23:51;5.43;;;4.93;;
13816;SDS011;6979;52.116;5.286;2024-01-06T00:26:18;4.53;;;4.13;;
13816;SDS011;6979;52.116;5.286;2024-01-06T00:28:45;4.87;;;4.47;;
13816;SDS011;6979;52.116;5.286;2024-01-06T00:31:14;4.80;;;4.40;;
13816;SDS011;6979;52.116;5.286;2024-01-06T00:33:43;5.27;;;4.77;;
13816;SDS011;6979;52.116;5.286;2024-01-06T00:36:14;4.80;;;4.40;;
13816;SDS011;6979;52.116;5.286;2024-01-06T00:38:41;4.90;;;4.50;;
13816;SDS011;6979;52.116;5.286;2024-01-06T00:41:08;5.13;;;4.63;;
13816;SDS011;6979;52.116;5.286;2024-01-06T00:43:37;5.00;;;4.57;;
13816;SDS011;6979;52.116;5.286;2024-01-06T00:46:04;4.93;;;4.53;;
13816;SDS011;6979;52.116;5.286;2024-01-06T00:48:31;4.87;;;4.47;;
13816;SDS011;6979;52.116;5.286;2024-01-06T00:50:58;5.37;;;4.97;;
13816;SDS011;6979;52.116;5.286;2024-01-06T00:53:26;4.27;;;3.93;;
13816;SDS011;6979;52.116;5.286;2024-01-06T00:55:54;4.10;;;3.80;;
13816;SDS011;6979;52.116;5.286;2024-01-06T00:58:21;4.27;;;3.80;;
13816;SDS011;6979;52.116;5.286;2024-01-06T01:00:48;4.53;;;4.13;;
13816;SDS011;6979;52.116;5.286;2024-01-06T01:03:15;4.83;;;4.43;;
13816;SDS011;6979;52.116;5.286;2024-01-06T01:05:41;4.03;;;3.73;;
13816;SDS011;6979;52.116;5.286;2024-01-06T01:08:08;3.87;;;3.50;;
13816;SDS011;6979;52.116;5.286;2024-01-06T01:10:36;3.67;;;3.37;;
13816;SDS011;6979;52.116;5.286;2024-01-06T01:13:03;3.93;;;3.63;;
13816;SDS011;6979;52.116;5.286;2024-01-06T01:15:30;3.80;;;3.50;;
13816;SDS011;6979;52.116;5.286;2024-01-06T01:17:57;4.57;;;4.23;;
13816;SDS011;6979;52.116;5.286;2024-01-06T01:20:24;4.37;;;4.00;;
13816;SDS011;6979;52.116;5.286;2024-01-06T01:22:51;4.23;;;3.93;;
13816;SDS011;6979;52.116;5.286;2024-01-06T01:25:17;4.40;;;3.53;;
13816;SDS011;6979;52.116;5.286;2024-01-06T01:27:46;3.93;;;3.63;;
13816;SDS011;6979;52.116;5.286;2024-01-06T01:30:13;4.37;;;4.07;;
13816;SDS011;6979;52.116;5.286;2024-01-06T01:32:40;4.20;;;3.80;;
13816;SDS011;6979;52.116;5.286;2024-01-06T01:35:07;4.10;;;3.63;;
13816;SDS011;6979;52.116;5.286;2024-01-06T01:37:34;4.67;;;4.37;;
13816;SDS011;6979;52.116;5.286;2024-01-06T01:40:01;5.23;;;4.83;;
13816;SDS011;6979;52.116;5.286;2024-01-06T01:42:28;5.23;;;4.87;;
13816;SDS011;6979;52.116;5.286;2024-01-06T01:44:56;5.13;;;4.73;;
13816;SDS011;6979;52.116;5.286;2024-01-06T01:47:25;5.83;;;5.43;;
13816;SDS011;6979;52.116;5.286;2024-01-06T01:49:52;5.70;;;5.30;;
13816;SDS011;6979;52.116;5.286;2024-01-06T01:52:21;6.27;;;5.77;;
13816;SDS011;6979;52.116;5.286;2024-01-06T01:54:47;7.40;;;6.90;;
13816;SDS011;6979;52.116;5.286;2024-01-06T01:57:15;7.10;;;6.57;;
13816;SDS011;6979;52.116;5.286;2024-01-06T01:59:42;7.07;;;6.43;;
13816;SDS011;6979;52.116;5.286;2024-01-06T02:02:10;6.73;;;6.23;;
13816;SDS011;6979;52.116;5.286;2024-01-06T02:04:38;6.07;;;5.67;;
13816;SDS011;6979;52.116;5.286;2024-01-06T02:07:05;6.60;;;6.10;;
13816;SDS011;6979;52.116;5.286;2024-01-06T02:09:33;6.30;;;5.80;;
13816;SDS011;6979;52.116;5.286;2024-01-06T02:12:00;6.07;;;5.63;;
13816;SDS011;6979;52.116;5.286;2024-01-06T02:14:27;5.37;;;5.03;;
13816;SDS011;6979;52.116;5.286;2024-01-06T02:16:54;5.37;;;4.97;;
13816;SDS011;6979;52.116;5.286;2024-01-06T02:19:23;6.10;;;5.70;;
13816;SDS011;6979;52.116;5.286;2024-01-06T02:21:52;4.87;;;4.57;;
13816;SDS011;6979;52.116;5.286;2024-01-06T02:24:19;4.70;;;4.40;;
13816;SDS011;6979;52.116;5.286;2024-01-06T02:26:46;4.73;;;4.43;;
13816;SDS011;6979;52.116;5.286;2024-01-06T02:29:13;4.07;;;3.77;;
13816;SDS011;6979;52.116;5.286;2024-01-06T02:31:40;4.57;;;4.27;;
13816;SDS011;6979;52.116;5.286;2024-01-06T02:34:07;4.63;;;4.33;;
13816;SDS011;6979;52.116;5.286;2024-01-06T02:36:36;4.27;;;3.97;;
13816;SDS011;6979;52.116;5.286;2024-01-06T02:39:04;5.00;;;4.60;;
13816;SDS011;6979;52.116;5.286;2024-01-06T02:41:37;4.60;;;4.30;;
13816;SDS011;6979;52.116;5.286;2024-01-06T02:44:04;5.00;;;4.60;;
13816;SDS011;6979;52.116;5.286;2024-01-06T02:46:31;4.73;;;4.43;;
13816;SDS011;6979;52.116;5.286;2024-01-06T02:48:58;5.20;;;4.90;;
13816;SDS011;6979;52.116;5.286;2024-01-06T02:51:25;5.07;;;4.63;;
13816;SDS011;6979;52.116;5.286;2024-01-06T02:53:51;4.30;;;4.00;;
13816;SDS011;6979;52.116;5.286;2024-01-06T02:56:20;5.00;;;4.60;;
13816;SDS011;6979;52.116;5.286;2024-01-06T02:58:46;4.50;;;4.20;;
13816;SDS011;6979;52.116;5.286;2024-01-06T03:01:13;4.67;;;4.27;;
13816;SDS011;6979;52.116;5.286;2024-01-06T03:03:40;5.40;;;5.00;;
13816;SDS011;6979;52.116;5.286;2024-01-06T03:06:07;5.40;;;5.00;;
13816;SDS011;6979;52.116;5.286;2024-01-06T03:08:34;5.10;;;4.73;;
13816;SDS011;6979;52.116;5.286;2024-01-06T03:11:01;4.50;;;4.20;;
13816;SDS011;6979;52.116;5.286;2024-01-06T03:13:31;5.40;;;5.00;;
13816;SDS011;6979;52.116;5.286;2024-01-06T03:16:00;5.20;;;4.80;;
13816;SDS011;6979;52.116;5.286;2024-01-06T03:18:29;5.07;;;4.67;;
13816;SDS011;6979;52.116;5.286;2024-01-06T03:20:56;5.23;;;4.83;;
13816;SDS011;6979;52.116;5.286;2024-01-06T03:23:23;5.17;;;4.77;;
13816;SDS011;6979;52.116;5.286;2024-01-06T03:25:50;4.93;;;4.53;;
13816;SDS011;6979;52.116;5.286;2024-01-06T03:28:19;4.60;;;4.20;;
13816;SDS011;6979;52.116;5.286;2024-01-06T03:30:48;5.17;;;4.77;;
13816;SDS011;6979;52.116;5.286;2024-01-06T03:33:15;5.40;;;5.00;;
13816;SDS011;6979;52.116;5.286;2024-01-06T03:35:42;5.17;;;4.67;;
13816;SDS011;6979;52.116;5.286;2024-01-06T03:38:08;5.67;;;5.27;;
13816;SDS011;6979;52.116;5.286;2024-01-06T03:40:35;5.33;;;4.83;;
13816;SDS011;6979;52.116;5.286;2024-01-06T03:43:02;6.53;;;6.00;;
13816;SDS011;6979;52.116;5.286;2024-01-06T03:45:29;5.67;;;5.27;;
13816;SDS011;6979;52.116;5.286;2024-01-06T03:48:00;5.40;;;5.00;;
13816;SDS011;6979;52.116;5.286;2024-01-06T03:50:27;5.73;;;5.33;;
13816;SDS011;6979;52.116;5.286;2024-01-06T03:52:54;5.73;;;5.33;;
13816;SDS011;6979;52.116;5.286;2024-01-06T03:55:21;5.30;;;4.90;;
13816;SDS011;6979;52.116;5.286;2024-01-06T03:57:48;5.57;;;5.17;;
13816;SDS011;6979;52.116;5.286;2024-01-06T04:00:16;6.67;;;6.17;;
13816;SDS011;6979;52.116;5.286;2024-01-06T04:02:43;5.27;;;4.87;;
13816;SDS011;6979;52.116;5.286;2024-01-06T04:05:11;5.13;;;4.73;;
13816;SDS011;6979;52.116;5.286;2024-01-06T04:07:38;6.23;;;5.73;;
13816;SDS011;6979;52.116;5.286;2024-01-06T04:10:05;6.00;;;5.57;;
13816;SDS011;6979;52.116;5.286;2024-01-06T04:12:34;5.30;;;4.90;;
13816;SDS011;6979;52.116;5.286;2024-01-06T04:15:03;5.57;;;5.17;;
13816;SDS011;6979;52.116;5.286;2024-01-06T04:17:30;5.70;;;5.20;;
13816;SDS011;6979;52.116;5.286;2024-01-06T04:19:59;5.57;;;5.13;;
13816;SDS011;6979;52.116;5.286;2024-01-06T04:22:30;5.90;;;5.40;;
13816;SDS011;6979;52.116;5.286;2024-01-06T04:24:57;5.23;;;4.83;;
13816;SDS011;6979;52.116;5.286;2024-01-06T04:27:24;6.07;;;5.57;;
13816;SDS011;6979;52.116;5.286;2024-01-06T04:29:51;5.47;;;5.00;;
13816;SDS011;6979;52.116;5.286;2024-01-06T04:32:18;5.70;;;5.20;;
13816;SDS011;6979;52.116;5.286;2024-01-06T04:34:45;6.13;;;5.63;;
13816;SDS011;6979;52.116;5.286;2024-01-06T04:37:11;5.40;;;4.90;;
13816;SDS011;6979;52.116;5.286;2024-01-06T04:39:40;5.87;;;5.37;;
13816;SDS011;6979;52.116;5.286;2024-01-06T04:42:06;6.10;;;5.60;;
13816;SDS011;6979;52.116;5.286;2024-01-06T04:44:33;5.97;;;5.47;;
13816;SDS011;6979;52.116;5.286;2024-01-06T04:47:00;6.43;;;5.93;;
13816;SDS011;6979;52.116;5.286;2024-01-06T04:49:27;6.73;;;6.13;;
13816;SDS011;6979;52.116;5.286;2024-01-06T04:51:54;6.10;;;5.60;;
13816;SDS011;6979;52.116;5.286;2024-01-06T04:54:21;7.13;;;6.53;;
13816;SDS011;6979;52.116;5.286;2024-01-06T04:56:49;8.47;;;7.67;;
13816;SDS011;6979;52.116;5.286;2024-01-06T04:59:16;8.87;;;8.07;;
13816;SDS011;6979;52.116;5.286;2024-01-06T05:01:43;8.63;;;7.93;;
13816;SDS011;6979;52.116;5.286;2024-01-06T05:04:11;8.90;;;8.00;;
13816;SDS011;6979;52.116;5.286;2024-01-06T05:06:38;9.60;;;8.70;;
13816;SDS011;6979;52.116;5.286;2024-01-06T05:09:05;8.03;;;7.37;;
13816;SDS011;6979;52.116;5.286;2024-01-06T05:11:32;8.87;;;8.13;;
13816;SDS011;6979;52.116;5.286;2024-01-06T05:14:00;7.53;;;6.93;;
13816;SDS011;6979;52.116;5.286;2024-01-06T05:16:28;7.90;;;7.20;;
13816;SDS011;6979;52.116;5.286;2024-01-06T05:18:55;7.87;;;7.07;;
13816;SDS011;6979;52.116;5.286;2024-01-06T05:21:22;7.60;;;6.90;;
13816;SDS011;6979;52.116;5.286;2024-01-06T05:23:49;7.60;;;6.90;;
13816;SDS011;6979;52.116;5.286;2024-01-06T05:26:16;7.10;;;6.50;;
13816;SDS011;6979;52.116;5.286;2024-01-06T05:28:42;7.10;;;6.50;;
13816;SDS011;6979;52.116;5.286;2024-01-06T05:31:11;6.30;;;5.80;;
13816;SDS011;6979;52.116;5.286;2024-01-06T05:33:38;6.93;;;6.23;;
13816;SDS011;6979;52.116;5.286;2024-01-06T05:36:05;7.77;;;7.07;;
13816;SDS011;6979;52.116;5.286;2024-01-06T05:38:34;6.67;;;6.17;;
13816;SDS011;6979;52.116;5.286;2024-01-06T05:41:01;7.20;;;6.60;;
13816;SDS011;6979;52.116;5.286;2024-01-06T05:43:28;6.93;;;6.40;;
13816;SDS011;6979;52.116;5.286;2024-01-06T05:45:58;8.27;;;7.47;;
13816;SDS011;6979;52.116;5.286;2024-01-06T05:48:26;8.17;;;7.37;;
13816;SDS011;6979;52.116;5.286;2024-01-06T05:50:55;8.33;;;7.53;;
13816;SDS011;6979;52.116;5.286;2024-01-06T05:53:25;9.57;;;8.67;;
13816;SDS011;6979;52.116;5.286;2024-01-06T05:55:52;10.33;;;9.43;;
13816;SDS011;6979;52.116;5.286;2024-01-06T05:58:20;9.53;;;8.73;;
13816;SDS011;6979;52.116;5.286;2024-01-06T06:00:47;10.07;;;9.20;;
13816;SDS011;6979;52.116;5.286;2024-01-06T06:03:17;9.93;;;9.13;;
13816;SDS011;6979;52.116;5.286;2024-01-06T06:05:45;10.03;;;9.13;;
13816;SDS011;6979;52.116;5.286;2024-01-06T06:08:12;10.37;;;9.53;;
13816;SDS011;6979;52.116;5.286;2024-01-06T06:10:39;9.50;;;8.63;;
13816;SDS011;6979;52.116;5.286;2024-01-06T06:13:16;10.70;;;9.50;;
13816;SDS011;6979;52.116;5.286;2024-01-06T06:15:43;10.37;;;9.40;;
13816;SDS011;6979;52.116;5.286;2024-01-06T06:18:10;11.27;;;10.03;;
13816;SDS011;6979;52.116;5.286;2024-01-06T06:20:37;10.53;;;9.43;;
13816;SDS011;6979;52.116;5.286;2024-01-06T06:23:08;11.30;;;10.30;;
13816;SDS011;6979;52.116;5.286;2024-01-06T06:25:36;10.47;;;9.57;;
13816;SDS011;6979;52.116;5.286;2024-01-06T06:28:04;10.00;;;9.10;;
13816;SDS011;6979;52.116;5.286;2024-01-06T06:30:31;10.53;;;9.60;;
13816;SDS011;6979;52.116;5.286;2024-01-06T06:32:58;10.67;;;9.70;;
13816;SDS011;6979;52.116;5.286;2024-01-06T06:35:25;11.50;;;10.43;;
13816;SDS011;6979;52.116;5.286;2024-01-06T06:37:52;11.53;;;9.23;;
13816;SDS011;6979;52.116;5.286;2024-01-06T06:40:20;10.40;;;9.50;;
13816;SDS011;6979;52.116;5.286;2024-01-06T06:42:47;11.70;;;10.63;;
13816;SDS011;6979;52.116;5.286;2024-01-06T06:45:17;10.67;;;9.77;;
13816;SDS011;6979;52.116;5.286;2024-01-06T06:47:47;10.70;;;9.70;;
13816;SDS011;6979;52.116;5.286;2024-01-06T06:50:14;12.77;;;11.50;;
13816;SDS011;6979;52.116;5.286;2024-01-06T06:52:41;10.90;;;10.00;;
13816;SDS011;6979;52.116;5.286;2024-01-06T06:55:08;10.80;;;9.70;;
13816;SDS011;6979;52.116;5.286;2024-01-06T06:57:36;9.57;;;8.67;;
13816;SDS011;6979;52.116;5.286;2024-01-06T07:00:05;9.30;;;8.40;;
13816;SDS011;6979;52.116;5.286;2024-01-06T07:02:33;10.03;;;9.13;;
13816;SDS011;6979;52.116;5.286;2024-01-06T07:05:00;10.33;;;9.13;;
13816;SDS011;6979;52.116;5.286;2024-01-06T07:07:27;9.83;;;8.93;;
13816;SDS011;6979;52.116;5.286;2024-01-06T07:09:56;8.43;;;7.73;;
13816;SDS011;6979;52.116;5.286;2024-01-06T07:12:23;8.70;;;7.90;;
13816;SDS011;6979;52.116;5.286;2024-01-06T07:14:51;8.80;;;8.00;;
13816;SDS011;6979;52.116;5.286;2024-01-06T07:17:21;6.87;;;6.37;;
13816;SDS011;6979;52.116;5.286;2024-01-06T07:19:49;7.30;;;6.60;;
13816;SDS011;6979;52.116;5.286;2024-01-06T07:22:16;8.43;;;7.80;;
13816;SDS011;6979;52.116;5.286;2024-01-06T07:24:43;9.37;;;8.57;;
13816;SDS011;6979;52.116;5.286;2024-01-06T07:27:10;8.63;;;7.87;;
13816;SDS011;6979;52.116;5.286;2024-01-06T07:29:37;8.77;;;7.97;;
13816;SDS011;6979;52.116;5.286;2024-01-06T07:32:05;9.77;;;8.87;;
13816;SDS011;6979;52.116;5.286;2024-01-06T07:34:32;9.60;;;7.43;;
13816;SDS011;6979;52.116;5.286;2024-01-06T07:36:59;8.53;;;7.73;;
13816;SDS011;6979;52.116;5.286;2024-01-06T07:39:26;8.93;;;8.23;;
13816;SDS011;6979;52.116;5.286;2024-01-06T07:41:53;8.40;;;7.47;;
13816;SDS011;6979;52.116;5.286;2024-01-06T07:44:20;8.80;;;8.00;;
13816;SDS011;6979;52.116;5.286;2024-01-06T07:46:49;8.43;;;7.80;;
13816;SDS011;6979;52.116;5.286;2024-01-06T07:49:18;8.60;;;7.90;;
13816;SDS011;6979;52.116;5.286;2024-01-06T07:51:47;7.77;;;7.17;;
13816;SDS011;6979;52.116;5.286;2024-01-06T07:54:14;8.00;;;7.37;;
13816;SDS011;6979;52.116;5.286;2024-01-06T07:56:42;8.53;;;7.83;;
13816;SDS011;6979;52.116;5.286;2024-01-06T07:59:10;8.77;;;7.87;;
13816;SDS011;6979;52.116;5.286;2024-01-06T08:01:37;9.73;;;8.93;;
13816;SDS011;6979;52.116;5.286;2024-01-06T08:04:04;8.93;;;8.23;;
13816;SDS011;6979;52.116;5.286;2024-01-06T08:06:33;10.20;;;9.20;;
13816;SDS011;6979;52.116;5.286;2024-01-06T08:09:00;10.90;;;9.90;;
13816;SDS011;6979;52.116;5.286;2024-01-06T08:11:31;8.37;;;7.67;;
13816;SDS011;6979;52.116;5.286;2024-01-06T08:13:58;10.13;;;9.13;;
13816;SDS011;6979;52.116;5.286;2024-01-06T08:16:24;9.10;;;8.27;;
13816;SDS011;6979;52.116;5.286;2024-01-06T08:18:52;9.43;;;8.43;;
13816;SDS011;6979;52.116;5.286;2024-01-06T08:21:18;9.43;;;8.50;;
13816;SDS011;6979;52.116;5.286;2024-01-06T08:23:47;9.07;;;8.23;;
13816;SDS011;6979;52.116;5.286;2024-01-06T08:26:14;10.37;;;9.47;;
13816;SDS011;6979;52.116;5.286;2024-01-06T08:28:41;9.80;;;8.87;;
13816;SDS011;6979;52.116;5.286;2024-01-06T08:31:09;9.63;;;8.87;;
13816;SDS011;6979;52.116;5.286;2024-01-06T08:33:36;10.73;;;9.70;;
13816;SDS011;6979;52.116;5.286;2024-01-06T08:36:03;10.37;;;9.50;;
13816;SDS011;6979;52.116;5.286;2024-01-06T08:38:31;11.00;;;9.73;;
13816;SDS011;6979;52.116;5.286;2024-01-06T08:40:59;10.70;;;9.80;;
13816;SDS011;6979;52.116;5.286;2024-01-06T08:43:26;10.87;;;9.80;;
13816;SDS011;6979;52.116;5.286;2024-01-06T08:45:52;9.77;;;9.07;;
13816;SDS011;6979;52.116;5.286;2024-01-06T08:48:19;11.20;;;10.10;;
13816;SDS011;6979;52.116;5.286;2024-01-06T08:50:47;10.20;;;9.30;;
13816;SDS011;6979;52.116;5.286;2024-01-06T08:53:14;10.73;;;9.83;;
13816;SDS011;6979;52.116;5.286;2024-01-06T08:55:41;9.50;;;8.70;;
13816;SDS011;6979;52.116;5.286;2024-01-06T08:58:09;10.13;;;9.20;;
13816;SDS011;6979;52.116;5.286;2024-01-06T09:00:36;9.90;;;9.10;;
13816;SDS011;6979;52.116;5.286;2024-01-06T09:03:03;10.80;;;9.80;;
13816;SDS011;6979;52.116;5.286;2024-01-06T09:05:32;9.60;;;8.70;;
13816;SDS011;6979;52.116;5.286;2024-01-06T09:07:59;10.03;;;9.03;;
13816;SDS011;6979;52.116;5.286;2024-01-06T09:10:26;10.50;;;9.47;;
13816;SDS011;6979;52.116;5.286;2024-01-06T09:12:54;10.60;;;9.77;;
13816;SDS011;6979;52.116;5.286;2024-01-06T09:15:23;10.77;;;9.87;;
13816;SDS011;6979;52.116;5.286;2024-01-06T09:17:51;9.90;;;9.00;;
13816;SDS011;6979;52.116;5.286;2024-01-06T09:20:18;10.03;;;8.70;;
13816;SDS011;6979;52.116;5.286;2024-01-06T09:22:48;10.03;;;9.23;;
13816;SDS011;6979;52.116;5.286;2024-01-06T09:25:15;9.10;;;8.30;;
13816;SDS011;6979;52.116;5.286;2024-01-06T09:27:44;10.20;;;9.30;;
13816;SDS011;6979;52.116;5.286;2024-01-06T09:30:12;9.37;;;8.47;;
13816;SDS011;6979;52.116;5.286;2024-01-06T09:32:40;10.13;;;9.27;;
13816;SDS011;6979;52.116;5.286;2024-01-06T09:35:07;9.60;;;8.70;;
13816;SDS011;6979;52.116;5.286;2024-01-06T09:37:34;10.33;;;9.20;;
13816;SDS011;6979;52.116;5.286;2024-01-06T09:40:01;8.83;;;8.07;;
13816;SDS011;6979;52.116;5.286;2024-01-06T09:42:28;9.37;;;8.47;;
13816;SDS011;6979;52.116;5.286;2024-01-06T09:44:55;8.37;;;7.67;;
13816;SDS011;6979;52.116;5.286;2024-01-06T09:47:22;8.23;;;7.53;;
13816;SDS011;6979;52.116;5.286;2024-01-06T09:49:53;8.97;;;7.87;;
13816;SDS011;6979;52.116;5.286;2024-01-06T09:52:22;7.97;;;7.17;;
13816;SDS011;6979;52.116;5.286;2024-01-06T09:54:51;7.07;;;6.47;;
13816;SDS011;6979;52.116;5.286;2024-01-06T09:57:19;8.50;;;6.50;;
13816;SDS011;6979;52.116;5.286;2024-01-06T09:59:46;6.93;;;6.37;;
13816;SDS011;6979;52.116;5.286;2024-01-06T10:02:14;6.60;;;6.10;;
13816;SDS011;6979;52.116;5.286;2024-01-06T10:04:41;7.23;;;6.53;;
13816;SDS011;6979;52.116;5.286;2024-01-06T10:07:11;9.57;;;7.27;;
13816;SDS011;6979;52.116;5.286;2024-01-06T10:09:39;9.03;;;8.17;;
13816;SDS011;6979;52.116;5.286;2024-01-06T10:12:07;8.70;;;7.93;;
13816;SDS011;6979;52.116;5.286;2024-01-06T10:14:34;10.10;;;8.97;;
13816;SDS011;6979;52.116;5.286;2024-01-06T10:17:05;8.67;;;7.87;;
13816;SDS011;6979;52.116;5.286;2024-01-06T10:19:34;7.93;;;7.13;;
13816;SDS011;6979;52.116;5.286;2024-01-06T10:22:02;7.87;;;7.27;;
13816;SDS011;6979;52.116;5.286;2024-01-06T10:24:31;8.90;;;8.00;;
13816;SDS011;6979;52.116;5.286;2024-01-06T10:26:58;8.07;;;7.27;;
13816;SDS011;6979;52.116;5.286;2024-01-06T10:29:26;8.33;;;7.57;;
13816;SDS011;6979;52.116;5.286;2024-01-06T10:31:53;8.97;;;8.00;;
13816;SDS011;6979;52.116;5.286;2024-01-06T10:34:20;8.53;;;7.83;;
13816;SDS011;6979;52.116;5.286;2024-01-06T10:36:48;8.67;;;7.87;;
13816;SDS011;6979;52.116;5.286;2024-01-06T10:39:17;8.60;;;7.80;;
13816;SDS011;6979;52.116;5.286;2024-01-06T10:41:45;10.77;;;9.67;;
13816;SDS011;6979;52.116;5.286;2024-01-06T10:44:16;9.80;;;8.77;;
13816;SDS011;6979;52.116;5.286;2024-01-06T10:46:44;9.97;;;9.00;;
13816;SDS011;6979;52.116;5.286;2024-01-06T10:49:11;10.03;;;9.07;;
13816;SDS011;6979;52.116;5.286;2024-01-06T10:51:40;9.13;;;8.33;;
13816;SDS011;6979;52.116;5.286;2024-01-06T10:54:07;9.17;;;8.27;;
13816;SDS011;6979;52.116;5.286;2024-01-06T10:56:41;9.47;;;8.67;;
13816;SDS011;6979;52.116;5.286;2024-01-06T10:59:11;10.23;;;9.10;;
13816;SDS011;6979;52.116;5.286;2024-01-06T11:01:38;9.70;;;8.70;;
13816;SDS011;6979;52.116;5.286;2024-01-06T11:04:06;11.00;;;8.93;;
13816;SDS011;6979;52.116;5.286;2024-01-06T11:06:34;9.97;;;8.97;;
13816;SDS011;6979;52.116;5.286;2024-01-06T11:09:02;8.67;;;7.97;;
13816;SDS011;6979;52.116;5.286;2024-01-06T11:11:35;9.07;;;8.17;;
13816;SDS011;6979;52.116;5.286;2024-01-06T11:14:21;9.23;;;8.33;;
13816;SDS011;6979;52.116;5.286;2024-01-06T11:16:49;9.97;;;9.07;;
13816;SDS011;6979;52.116;5.286;2024-01-06T11:22:19;9.33;;;8.43;;
13816;SDS011;6979;52.116;5.286;2024-01-06T11:24:47;9.03;;;8.23;;
13816;SDS011;6979;52.116;5.286;2024-01-06T11:27:17;8.60;;;7.87;;
13816;SDS011;6979;52.116;5.286;2024-01-06T11:29:47;8.20;;;7.47;;
13816;SDS011;6979;52.116;5.286;2024-01-06T11:32:17;10.20;;;8.30;;
13816;SDS011;6979;52.116;5.286;2024-01-06T11:34:53;8.60;;;7.80;;
13816;SDS011;6979;52.116;5.286;2024-01-06T11:37:26;9.50;;;8.70;;
13816;SDS011;6979;52.116;5.286;2024-01-06T11:40:02;9.03;;;8.33;;
13816;SDS011;6979;52.116;5.286;2024-01-06T11:42:34;9.07;;;8.27;;
13816;SDS011;6979;52.116;5.286;2024-01-06T11:45:05;8.20;;;7.40;;
13816;SDS011;6979;52.116;5.286;2024-01-06T11:47:32;8.50;;;7.70;;
13816;SDS011;6979;52.116;5.286;2024-01-06T11:49:59;9.07;;;8.27;;
13816;SDS011;6979;52.116;5.286;2024-01-06T11:52:29;8.47;;;7.67;;
13816;SDS011;6979;52.116;5.286;2024-01-06T11:54:57;8.37;;;7.57;;
13816;SDS011;6979;52.116;5.286;2024-01-06T11:57:25;8.83;;;8.07;;
13816;SDS011;6979;52.116;5.286;2024-01-06T11:59:52;8.20;;;7.50;;
13816;SDS011;6979;52.116;5.286;2024-01-06T12:02:20;9.17;;;7.97;;
13816;SDS011;6979;52.116;5.286;2024-01-06T12:04:48;8.07;;;7.37;;
13816;SDS011;6979;52.116;5.286;2024-01-06T12:07:17;9.50;;;8.60;;
13816;SDS011;6979;52.116;5.286;2024-01-06T12:09:45;9.33;;;8.43;;
13816;SDS011;6979;52.116;5.286;2024-01-06T12:12:14;7.57;;;6.90;;
13816;SDS011;6979;52.116;5.286;2024-01-06T12:14:42;7.20;;;6.60;;
13816;SDS011;6979;52.116;5.286;2024-01-06T12:17:11;7.17;;;6.60;;
13816;SDS011;6979;52.116;5.286;2024-01-06T12:19:40;7.17;;;6.53;;
13816;SDS011;6979;52.116;5.286;2024-01-06T12:22:09;6.93;;;6.30;;
13816;SDS011;6979;52.116;5.286;2024-01-06T12:24:40;6.63;;;6.03;;
13816;SDS011;6979;52.116;5.286;2024-01-06T12:27:07;7.53;;;6.83;;
13816;SDS011;6979;52.116;5.286;2024-01-06T12:29:39;8.33;;;6.97;;
13816;SDS011;6979;52.116;5.286;2024-01-06T12:32:07;7.20;;;6.50;;
13816;SDS011;6979;52.116;5.286;2024-01-06T12:34:39;6.73;;;6.13;;
13816;SDS011;6979;52.116;5.286;2024-01-06T12:37:07;7.80;;;7.17;;
13816;SDS011;6979;52.116;5.286;2024-01-06T12:39:34;7.17;;;6.57;;
13816;SDS011;6979;52.116;5.286;2024-01-06T12:42:02;7.27;;;6.77;;
13816;SDS011;6979;52.116;5.286;2024-01-06T12:44:29;8.20;;;7.47;;
13816;SDS011;6979;52.116;5.286;2024-01-06T12:46:57;6.63;;;6.13;;
13816;SDS011;6979;52.116;5.286;2024-01-06T12:49:24;7.40;;;6.70;;
13816;SDS011;6979;52.116;5.286;2024-01-06T12:51:52;8.60;;;7.27;;
13816;SDS011;6979;52.116;5.286;2024-01-06T12:54:19;7.03;;;6.43;;
13816;SDS011;6979;52.116;5.286;2024-01-06T12:56:49;8.07;;;7.47;;
13816;SDS011;6979;52.116;5.286;2024-01-06T12:59:16;8.87;;;8.07;;
13816;SDS011;6979;52.116;5.286;2024-01-06T13:01:44;8.73;;;7.83;;
13816;SDS011;6979;52.116;5.286;2024-01-06T13:04:10;9.20;;;8.27;;
13816;SDS011;6979;52.116;5.286;2024-01-06T13:06:38;9.67;;;8.70;;
13816;SDS011;6979;52.116;5.286;2024-01-06T13:09:07;9.17;;;8.37;;
13816;SDS011;6979;52.116;5.286;2024-01-06T13:11:35;9.93;;;8.97;;
13816;SDS011;6979;52.116;5.286;2024-01-06T13:14:05;10.67;;;8.30;;
13816;SDS011;6979;52.116;5.286;2024-01-06T13:16:31;8.30;;;7.60;;
13816;SDS011;6979;52.116;5.286;2024-01-06T13:19:01;9.57;;;8.77;;
13816;SDS011;6979;52.116;5.286;2024-01-06T13:21:29;9.13;;;8.43;;
13816;SDS011;6979;52.116;5.286;2024-01-06T13:23:56;9.07;;;8.30;;
13816;SDS011;6979;52.116;5.286;2024-01-06T13:26:28;10.90;;;10.00;;
13816;SDS011;6979;52.116;5.286;2024-01-06T13:28:56;9.17;;;8.47;;
13816;SDS011;6979;52.116;5.286;2024-01-06T13:31:23;9.90;;;9.00;;
13816;SDS011;6979;52.116;5.286;2024-01-06T13:33:50;9.77;;;8.80;;
13816;SDS011;6979;52.116;5.286;2024-01-06T13:36:17;9.23;;;8.47;;
13816;SDS011;6979;52.116;5.286;2024-01-06T13:38:44;9.63;;;8.33;;
13816;SDS011;6979;52.116;5.286;2024-01-06T13:41:11;8.93;;;8.23;;
13816;SDS011;6979;52.116;5.286;2024-01-06T13:43:39;10.93;;;8.87;;
13816;SDS011;6979;52.116;5.286;2024-01-06T13:46:06;9.37;;;8.57;;
13816;SDS011;6979;52.116;5.286;2024-01-06T13:48:33;8.93;;;8.10;;
13816;SDS011;6979;52.116;5.286;2024-01-06T13:51:03;10.63;;;9.60;;
13816;SDS011;6979;52.116;5.286;2024-01-06T13:53:29;10.47;;;9.27;;
13816;SDS011;6979;52.116;5.286;2024-01-06T13:55:59;10.30;;;9.40;;
13816;SDS011;6979;52.116;5.286;2024-01-06T13:58:26;9.57;;;8.43;;
13816;SDS011;6979;52.116;5.286;2024-01-06T14:00:54;9.90;;;8.87;;
13816;SDS011;6979;52.116;5.286;2024-01-06T14:03:23;9.13;;;8.33;;
13816;SDS011;6979;52.116;5.286;2024-01-06T14:05:50;10.53;;;9.63;;
13816;SDS011;6979;52.116;5.286;2024-01-06T14:08:18;9.63;;;8.73;;
13816;SDS011;6979;52.116;5.286;2024-01-06T14:10:46;10.13;;;9.33;;
13816;SDS011;6979;52.116;5.286;2024-01-06T14:13:13;9.40;;;8.60;;
13816;SDS011;6979;52.116;5.286;2024-01-06T14:15:40;9.83;;;8.93;;
13816;SDS011;6979;52.116;5.286;2024-01-06T14:18:08;9.63;;;8.83;;
13816;SDS011;6979;52.116;5.286;2024-01-06T14:20:44;9.47;;;8.67;;
13816;SDS011;6979;52.116;5.286;2024-01-06T14:23:19;10.07;;;9.17;;
13816;SDS011;6979;52.116;5.286;2024-01-06T14:25:46;9.60;;;8.70;;
13816;SDS011;6979;52.116;5.286;2024-01-06T14:28:15;9.63;;;8.73;;
13816;SDS011;6979;52.116;5.286;2024-01-06T14:30:42;9.03;;;8.23;;
13816;SDS011;6979;52.116;5.286;2024-01-06T14:33:20;9.20;;;8.40;;
13816;SDS011;6979;52.116;5.286;2024-01-06T14:35:48;10.23;;;9.27;;
13816;SDS011;6979;52.116;5.286;2024-01-06T14:38:15;10.27;;;9.33;;
13816;SDS011;6979;52.116;5.286;2024-01-06T14:40:42;9.47;;;8.57;;
13816;SDS011;6979;52.116;5.286;2024-01-06T14:43:09;10.20;;;9.30;;
13816;SDS011;6979;52.116;5.286;2024-01-06T14:45:36;9.17;;;8.40;;
13816;SDS011;6979;52.116;5.286;2024-01-06T14:48:03;9.53;;;8.73;;
13816;SDS011;6979;52.116;5.286;2024-01-06T14:50:32;9.40;;;8.53;;
13816;SDS011;6979;52.116;5.286;2024-01-06T14:52:59;10.00;;;9.20;;
13816;SDS011;6979;52.116;5.286;2024-01-06T14:55:26;10.07;;;9.27;;
13816;SDS011;6979;52.116;5.286;2024-01-06T14:57:53;11.70;;;8.57;;
13816;SDS011;6979;52.116;5.286;2024-01-06T15:00:20;8.43;;;7.63;;
13816;SDS011;6979;52.116;5.286;2024-01-06T15:02:47;8.73;;;7.90;;
13816;SDS011;6979;52.116;5.286;2024-01-06T15:05:15;8.37;;;7.67;;